createdAt,value
2018-10-06T00:00:29.953Z,96493.85
2018-10-06T00:02:59.140Z,96491.18
2018-10-06T00:05:28.549Z,96486.11
2018-10-06T00:07:57.593Z,96492.95
2018-10-06T00:10:27.655Z,96492.97
2018-10-06T00:12:57.175Z,96487.80
2018-10-06T00:15:26.250Z,96482.72
2018-10-06T00:17:55.975Z,96483.28
2018-10-06T00:20:26.908Z,96483.53
2018-10-06T00:22:56.312Z,96485.23
2018-10-06T00:25:26.089Z,96482.84
2018-10-06T00:27:57.027Z,96481.49
2018-10-06T00:30:25.675Z,96476.27
2018-10-06T00:32:55.430Z,96471.42
2018-10-06T00:35:27.257Z,96467.45
2018-10-06T00:37:56.279Z,96466.22
2018-10-06T00:40:26.103Z,96463.75
2018-10-06T00:42:55.991Z,96456.95
2018-10-06T00:45:25.544Z,96458.95
2018-10-06T00:47:55.768Z,96457.44
2018-10-06T00:50:25.356Z,96491.33
2018-10-06T00:52:53.848Z,96454.77
2018-10-06T00:55:24.184Z,96448.38
2018-10-06T00:57:53.302Z,96448.59
2018-10-06T01:00:22.943Z,96440.25
2018-10-06T01:02:52.392Z,96431.75
2018-10-06T01:05:21.391Z,96428.87
2018-10-06T01:07:49.913Z,96422.60
2018-10-06T01:10:20.290Z,96419.09
2018-10-06T01:12:51.198Z,96419.09
2018-10-06T01:15:20.918Z,96413.63
2018-10-06T01:17:49.940Z,96406.80
2018-10-06T01:20:18.480Z,96407.83
2018-10-06T01:22:49.302Z,96412.11
2018-10-06T01:25:20.905Z,96415.06
2018-10-06T01:27:49.419Z,96414.75
2018-10-06T01:30:19.091Z,96410.40
2018-10-06T01:32:49.032Z,96416.13
2018-10-06T01:35:18.348Z,96411.14
2018-10-06T01:37:48.181Z,96405.06
2018-10-06T01:40:17.699Z,96406.86
2018-10-06T01:42:48.070Z,96388.67
2018-10-06T01:45:17.472Z,96385.47
2018-10-06T01:47:49.024Z,96378.80
2018-10-06T01:50:18.101Z,96379.95
2018-10-06T01:52:47.891Z,96384.02
2018-10-06T01:55:17.578Z,94325.46
2018-10-06T01:57:46.423Z,96392.33
2018-10-06T02:00:17.491Z,96384.61
2018-10-06T02:02:46.484Z,96380.15
2018-10-06T02:05:16.448Z,96375.33
2018-10-06T02:07:46.933Z,96255.11
2018-10-06T02:10:15.547Z,96383.36
2018-10-06T02:12:44.648Z,96411.06
2018-10-06T02:15:14.611Z,96258.31
2018-10-06T02:17:43.180Z,96390.33
2018-10-06T02:20:14.947Z,96390.20
2018-10-06T02:22:43.829Z,96390.30
2018-10-06T02:25:13.589Z,96393.81
2018-10-06T02:27:44.080Z,96389.91
2018-10-06T02:30:13.222Z,96394.47
2018-10-06T02:32:43.191Z,96396.94
2018-10-06T02:35:12.551Z,96396.68
2018-10-06T02:37:41.372Z,96395.02
2018-10-06T02:40:10.576Z,96402.38
2018-10-06T02:42:39.801Z,96398.64
2018-10-06T02:45:10.321Z,96398.45
2018-10-06T02:47:40.950Z,96399.22
2018-10-06T02:50:10.665Z,96394.20
2018-10-06T02:52:47.514Z,96396.63
2018-10-06T02:55:33.723Z,96391.84
2018-10-06T02:58:03.658Z,96387.87
2018-10-06T03:00:32.627Z,96379.87
2018-10-06T03:03:06.130Z,96377.55
2018-10-06T03:05:35.319Z,96372.77
2018-10-06T03:08:05.363Z,96373.80
2018-10-06T03:10:35.517Z,96366.66
2018-10-06T03:13:05.065Z,96358.70
2018-10-06T03:15:38.492Z,96358.86
2018-10-06T03:18:11.455Z,96367.34
2018-10-06T03:20:40.594Z,96358.78
2018-10-06T03:23:09.684Z,96355.58
2018-10-06T03:25:38.441Z,96348.80
2018-10-06T03:28:08.559Z,96347.28
2018-10-06T03:30:38.992Z,96345.59
2018-10-06T03:33:08.940Z,96345.25
2018-10-06T03:35:42.116Z,96338.95
2018-10-06T03:38:11.763Z,96335.30
2018-10-06T03:40:42.190Z,96341.80
2018-10-06T03:43:12.668Z,96336.14
2018-10-06T03:45:48.304Z,96335.03
2018-10-06T03:48:18.340Z,96333.39
2018-10-06T03:50:48.344Z,96337.64
2018-10-06T03:53:16.850Z,96334.30
2018-10-06T03:55:46.088Z,96334.50
2018-10-06T03:58:16.777Z,96331.02
2018-10-06T04:00:48.136Z,96329.29
2018-10-06T04:03:18.280Z,96325.53
2018-10-06T04:05:47.163Z,96333.78
2018-10-06T04:08:16.439Z,96332.86
2018-10-06T04:10:45.826Z,96331.06
2018-10-06T04:13:16.983Z,96334.98
2018-10-06T04:15:45.644Z,96329.76
2018-10-06T04:18:14.533Z,96331.52
2018-10-06T04:20:44.548Z,96332.72
2018-10-06T04:23:15.685Z,96329.63
2018-10-06T04:25:45.151Z,96324.34
2018-10-06T04:28:14.744Z,96325.91
2018-10-06T04:30:47.295Z,96326.08
2018-10-06T04:33:17.911Z,96320.20
2018-10-06T04:35:48.898Z,96322.14
2018-10-06T04:38:18.034Z,96327.89
2018-10-06T04:40:47.937Z,96317.30
2018-10-06T04:43:17.204Z,96318.02
2018-10-06T04:45:45.743Z,96315.12
2018-10-06T04:48:15.343Z,96311.27
2018-10-06T04:50:44.501Z,96316.14
2018-10-06T04:53:14.903Z,96314.22
2018-10-06T04:55:44.235Z,96315.69
2018-10-06T04:58:12.964Z,96307.06
2018-10-06T05:00:43.671Z,96310.67
2018-10-06T05:03:14.845Z,96309.51
2018-10-06T05:05:44.357Z,96309.58
2018-10-06T05:08:14.216Z,96306.98
2018-10-06T05:10:42.695Z,96308.84
2018-10-06T05:13:12.890Z,96305.61
2018-10-06T05:15:44.705Z,96310.41
2018-10-06T05:18:13.850Z,96305.30
2018-10-06T05:20:45.674Z,96313.35
2018-10-06T05:23:15.049Z,96305.97
2018-10-06T05:25:46.732Z,96313.41
2018-10-06T05:28:16.740Z,96331.88
2018-10-06T05:30:48.240Z,96306.10
2018-10-06T05:33:18.773Z,96299.52
2018-10-06T05:35:47.487Z,96304.69
2018-10-06T05:38:16.888Z,96310.55
2018-10-06T05:40:46.072Z,96301.70
2018-10-06T05:43:17.682Z,96304.63
2018-10-06T05:45:47.046Z,96306.09
2018-10-06T05:48:17.312Z,96310.32
2018-10-06T05:50:47.299Z,96319.13
2018-10-06T05:53:16.876Z,96325.77
2018-10-06T05:55:47.335Z,96322.52
2018-10-06T05:58:17.431Z,96326.05
2018-10-06T06:00:46.105Z,96323.21
2018-10-06T06:03:15.956Z,96323.02
2018-10-06T06:05:46.208Z,96327.52
2018-10-06T06:08:15.839Z,96322.81
2018-10-06T06:10:45.682Z,96325.97
2018-10-06T06:13:15.747Z,96321.56
2018-10-06T06:15:44.591Z,96327.00
2018-10-06T06:18:14.553Z,96322.08
2018-10-06T06:20:43.764Z,96320.30
2018-10-06T06:23:14.896Z,96327.73
2018-10-06T06:25:44.549Z,96321.05
2018-10-06T06:28:14.168Z,96320.73
2018-10-06T06:30:44.859Z,96320.34
2018-10-06T06:33:13.681Z,96319.00
2018-10-06T06:35:44.018Z,96319.17
2018-10-06T06:38:14.768Z,96313.78
2018-10-06T06:40:43.982Z,96314.64
2018-10-06T06:43:14.183Z,96312.28
2018-10-06T06:45:46.216Z,96316.67
2018-10-06T06:48:14.781Z,96313.60
2018-10-06T06:50:46.601Z,96315.27
2018-10-06T06:53:16.586Z,96316.28
2018-10-06T06:55:47.432Z,96312.49
2018-10-06T06:58:19.636Z,96316.27
2018-10-06T07:00:49.559Z,96311.13
2018-10-06T07:03:20.237Z,96310.73
2018-10-06T07:05:49.760Z,96313.91
2018-10-06T07:08:18.578Z,96324.93
2018-10-06T07:10:47.835Z,96314.11
2018-10-06T07:13:18.913Z,96316.42
2018-10-06T07:15:48.676Z,96311.92
2018-10-06T07:18:18.059Z,96313.19
2018-10-06T07:20:47.111Z,96308.73
2018-10-06T07:23:16.432Z,96310.08
2018-10-06T07:25:48.032Z,96309.25
2018-10-06T07:28:18.070Z,96305.67
2018-10-06T07:30:47.572Z,96305.19
2018-10-06T07:33:16.346Z,96310.00
2018-10-06T07:35:47.819Z,96307.62
2018-10-06T07:38:18.529Z,96309.98
2018-10-06T07:40:48.600Z,96308.90
2018-10-06T07:43:20.180Z,96307.49
2018-10-06T07:45:50.322Z,94867.38
2018-10-06T07:48:19.481Z,96301.43
2018-10-06T07:50:49.817Z,96299.16
2018-10-06T07:53:20.398Z,96300.48
2018-10-06T07:55:51.285Z,96304.89
2018-10-06T07:58:23.297Z,96304.11
2018-10-06T08:00:52.791Z,96307.97
2018-10-06T08:03:22.831Z,96308.39
2018-10-06T08:05:53.212Z,96307.12
2018-10-06T08:08:23.604Z,96310.73
2018-10-06T08:10:53.291Z,96311.75
2018-10-06T08:13:22.282Z,96307.11
2018-10-06T08:15:52.636Z,96311.98
2018-10-06T08:18:22.523Z,96304.58
2018-10-06T08:20:55.287Z,96302.59
2018-10-06T08:23:27.796Z,96300.47
2018-10-06T08:25:57.361Z,96297.22
2018-10-06T08:28:27.548Z,96302.19
2018-10-06T08:30:58.331Z,96302.42
2018-10-06T08:33:28.720Z,96295.00
2018-10-06T08:36:04.728Z,96296.30
2018-10-06T08:38:33.236Z,96292.21
2018-10-06T08:41:01.728Z,96286.42
2018-10-06T08:43:31.051Z,96285.94
2018-10-06T08:46:00.866Z,96294.53
2018-10-06T08:48:32.081Z,96282.72
2018-10-06T08:51:01.168Z,96287.14
2018-10-06T08:53:30.624Z,96285.49
2018-10-06T08:55:59.870Z,96281.33
2018-10-06T08:58:28.699Z,96281.58
2018-10-06T09:00:57.240Z,96276.47
2018-10-06T09:03:27.509Z,96278.15
2018-10-06T09:05:56.955Z,96291.14
2018-10-06T09:08:27.411Z,96275.44
2018-10-06T09:10:56.064Z,96275.41
2018-10-06T09:13:24.820Z,96273.68
2018-10-06T09:15:54.922Z,96272.70
2018-10-06T09:18:24.881Z,96275.20
2018-10-06T09:20:54.151Z,96274.77
2018-10-06T09:23:24.381Z,96277.70
2018-10-06T09:25:53.566Z,96271.05
2018-10-06T09:28:22.722Z,96266.80
2018-10-06T09:30:52.586Z,96271.12
2018-10-06T09:33:21.181Z,96264.64
2018-10-06T09:35:50.254Z,96259.53
2018-10-06T09:38:19.725Z,96254.80
2018-10-06T09:40:50.186Z,96247.67
2018-10-06T09:43:21.310Z,96247.25
2018-10-06T09:45:52.085Z,96245.91
2018-10-06T09:48:22.569Z,96238.82
2018-10-06T09:50:51.710Z,96236.91
2018-10-06T09:53:21.997Z,96234.92
2018-10-06T09:55:52.330Z,96228.62
2018-10-06T09:58:22.347Z,96226.41
2018-10-06T10:00:56.962Z,96224.58
2018-10-06T10:03:31.944Z,96225.52
2018-10-06T10:06:02.464Z,96223.34
2018-10-06T10:08:32.819Z,96219.18
2018-10-06T10:11:01.475Z,96214.05
2018-10-06T10:13:29.997Z,96213.82
2018-10-06T10:15:59.110Z,96214.30
2018-10-06T10:18:28.046Z,96208.73
2018-10-06T10:20:57.425Z,96195.56
2018-10-06T10:23:27.003Z,96187.68
2018-10-06T10:26:01.819Z,96189.02
2018-10-06T10:28:31.576Z,96185.47
2018-10-06T10:31:00.670Z,96187.36
2018-10-06T10:33:29.648Z,96232.64
2018-10-06T10:36:01.481Z,96183.41
2018-10-06T10:38:30.901Z,96183.70
2018-10-06T10:40:59.631Z,96184.88
2018-10-06T10:43:29.831Z,96181.46
2018-10-06T10:46:00.220Z,96182.20
2018-10-06T10:48:30.049Z,96179.77
2018-10-06T10:50:59.665Z,96174.95
2018-10-06T10:53:29.427Z,96177.80
2018-10-06T10:55:58.525Z,96173.86
2018-10-06T10:58:27.283Z,96172.00
2018-10-06T11:00:57.683Z,96170.11
2018-10-06T11:03:27.972Z,96166.09
2018-10-06T11:05:57.677Z,96162.20
2018-10-06T11:08:26.428Z,96158.17
2018-10-06T11:10:57.600Z,96151.37
2018-10-06T11:13:29.492Z,96147.80
2018-10-06T11:15:59.591Z,96151.23
2018-10-06T11:18:30.667Z,96144.89
2018-10-06T11:21:00.200Z,96142.35
2018-10-06T11:23:30.769Z,96139.28
2018-10-06T11:26:00.820Z,96126.16
2018-10-06T11:28:30.319Z,96120.63
2018-10-06T11:31:00.052Z,96120.77
2018-10-06T11:33:29.904Z,96117.23
2018-10-06T11:35:59.533Z,96109.50
2018-10-06T11:38:28.561Z,96117.81
2018-10-06T11:40:57.291Z,96105.66
2018-10-06T11:43:26.673Z,96096.69
2018-10-06T11:45:56.787Z,96089.16
2018-10-06T11:48:26.300Z,96084.30
2018-10-06T11:50:55.968Z,96079.32
2018-10-06T11:53:26.967Z,96068.77
2018-10-06T11:55:56.041Z,96068.98
2018-10-06T11:58:25.558Z,96065.91
2018-10-06T12:00:54.666Z,96063.25
2018-10-06T12:03:26.526Z,96057.93
2018-10-06T12:05:55.368Z,96073.38
2018-10-06T12:08:24.322Z,96051.63
2018-10-06T12:10:54.307Z,96050.94
2018-10-06T12:13:24.904Z,96055.39
2018-10-06T12:15:54.393Z,96055.36
2018-10-06T12:18:22.959Z,96051.00
2018-10-06T12:20:52.556Z,96050.81
2018-10-06T12:23:21.284Z,96049.65
2018-10-06T12:25:50.294Z,96040.77
2018-10-06T12:28:19.532Z,96043.17
2018-10-06T12:30:49.964Z,96035.63
2018-10-06T12:33:23.304Z,96030.23
2018-10-06T12:35:54.078Z,96029.61
2018-10-06T12:38:23.029Z,96025.11
2018-10-06T12:40:53.612Z,96021.91
2018-10-06T12:43:22.556Z,96027.09
2018-10-06T12:45:52.406Z,96025.64
2018-10-06T12:48:21.331Z,96018.42
2018-10-06T12:50:51.850Z,95665.16
2018-10-06T12:53:22.427Z,96019.63
2018-10-06T12:55:56.091Z,96021.90
2018-10-06T12:58:25.699Z,96018.27
2018-10-06T13:00:55.647Z,96014.01
2018-10-06T13:03:25.667Z,96012.05
2018-10-06T13:05:54.856Z,96012.12
2018-10-06T13:08:25.435Z,96009.96
2018-10-06T13:10:56.295Z,96001.05
2018-10-06T13:13:26.786Z,96004.33
2018-10-06T13:15:55.485Z,96001.44
2018-10-06T13:18:25.491Z,95992.05
2018-10-06T13:20:55.401Z,95987.62
2018-10-06T13:23:25.471Z,95995.17
2018-10-06T13:25:55.509Z,95984.24
2018-10-06T13:28:24.273Z,95990.62
2018-10-06T13:30:54.835Z,95987.16
2018-10-06T13:33:24.292Z,95989.15
2018-10-06T13:35:52.961Z,95986.30
2018-10-06T13:38:24.100Z,95676.39
2018-10-06T13:40:55.684Z,95990.14
2018-10-06T13:43:26.968Z,95982.74
2018-10-06T13:45:57.183Z,95985.50
2018-10-06T13:48:27.168Z,95990.70
2018-10-06T13:50:57.262Z,95988.33
2018-10-06T13:53:27.411Z,95983.25
2018-10-06T13:55:57.823Z,95985.19
2018-10-06T13:58:26.321Z,95989.22
2018-10-06T14:00:56.400Z,95991.33
2018-10-06T14:03:26.091Z,95985.41
2018-10-06T14:05:57.544Z,95988.93
2018-10-06T14:08:27.040Z,95985.93
2018-10-06T14:10:56.899Z,95986.58
2018-10-06T14:13:26.281Z,95989.06
2018-10-06T14:15:56.868Z,95981.21
2018-10-06T14:18:28.988Z,95978.95
2018-10-06T14:20:59.064Z,95981.78
2018-10-06T14:23:30.020Z,95980.02
2018-10-06T14:25:59.120Z,95984.48
2018-10-06T14:28:29.247Z,95985.80
2018-10-06T14:31:00.778Z,95969.47
2018-10-06T14:33:31.144Z,95976.34
2018-10-06T14:36:00.823Z,95973.50
2018-10-06T14:38:30.839Z,95972.45
2018-10-06T14:41:00.627Z,95966.41
2018-10-06T14:43:29.956Z,95963.89
2018-10-06T14:45:59.023Z,95963.35
2018-10-06T14:48:28.792Z,95964.44
2018-10-06T14:50:59.767Z,95962.84
2018-10-06T14:53:30.283Z,95958.27
2018-10-06T14:56:00.910Z,95960.72
2018-10-06T14:58:30.591Z,95956.23
2018-10-06T15:01:00.352Z,95957.31
2018-10-06T15:03:29.509Z,95954.31
2018-10-06T15:05:58.552Z,95956.59
2018-10-06T15:08:27.821Z,95955.11
2018-10-06T15:10:59.283Z,95954.68
2018-10-06T15:13:28.402Z,95952.41
2018-10-06T15:15:58.082Z,96012.88
2018-10-06T15:18:28.291Z,95951.39
2018-10-06T15:20:58.559Z,95947.08
2018-10-06T15:23:29.639Z,95947.55
2018-10-06T15:26:00.041Z,95947.08
2018-10-06T15:28:29.053Z,95939.01
2018-10-06T15:30:59.120Z,95939.84
2018-10-06T15:33:28.612Z,95944.05
2018-10-06T15:36:00.891Z,95946.32
2018-10-06T15:38:32.011Z,95941.38
2018-10-06T15:41:01.340Z,95940.67
2018-10-06T15:43:30.868Z,95938.75
2018-10-06T15:46:05.198Z,95933.71
2018-10-06T15:48:35.088Z,95934.55
2018-10-06T15:51:04.605Z,95930.77
2018-10-06T15:53:33.304Z,95932.78
2018-10-06T15:56:03.955Z,95927.44
2018-10-06T15:58:35.227Z,95931.86
2018-10-06T16:01:05.366Z,95927.50
2018-10-06T16:03:35.363Z,95861.27
2018-10-06T16:06:07.604Z,95857.00
2018-10-06T16:08:37.679Z,95929.83
2018-10-06T16:11:08.056Z,95917.23
2018-10-06T16:13:36.647Z,95921.98
2018-10-06T16:16:07.719Z,95925.31
2018-10-06T16:18:36.955Z,95918.03
2018-10-06T16:21:07.317Z,95920.31
2018-10-06T16:23:39.444Z,95925.55
2018-10-06T16:26:08.372Z,95926.89
2018-10-06T16:28:37.099Z,95918.93
2018-10-06T16:31:07.018Z,95924.19
2018-10-06T16:33:37.489Z,95929.17
2018-10-06T16:36:06.593Z,95925.94
2018-10-06T16:38:35.478Z,95924.59
2018-10-06T16:41:07.207Z,95926.88
2018-10-06T16:43:37.521Z,95926.78
2018-10-06T16:46:06.835Z,95927.84
2018-10-06T16:48:37.521Z,95928.72
2018-10-06T16:51:06.997Z,95923.09
2018-10-06T16:53:37.138Z,95924.80
2018-10-06T16:56:07.753Z,95932.22
2018-10-06T16:58:41.445Z,95925.95
2018-10-06T17:01:09.948Z,95927.08
2018-10-06T17:03:39.082Z,95929.87
2018-10-06T17:06:08.871Z,95936.56
2018-10-06T17:08:39.983Z,95932.31
2018-10-06T17:11:09.108Z,95941.23
2018-10-06T17:13:38.604Z,95938.67
2018-10-06T17:16:07.279Z,95936.52
2018-10-06T17:18:36.453Z,95926.53
2018-10-06T17:21:07.298Z,95925.98
2018-10-06T17:23:38.805Z,95920.41
2018-10-06T17:26:08.271Z,95920.14
2018-10-06T17:28:39.403Z,95615.54
2018-10-06T17:31:08.975Z,95918.05
2018-10-06T17:33:38.805Z,95913.89
2018-10-06T17:36:09.756Z,95908.96
2018-10-06T17:38:41.448Z,95911.48
2018-10-06T17:41:11.029Z,95907.13
2018-10-06T17:43:42.797Z,95866.66
2018-10-06T17:46:12.956Z,95915.00
2018-10-06T17:48:42.512Z,95910.75
2018-10-06T17:51:18.053Z,95910.30
2018-10-06T17:53:47.978Z,95919.62
2018-10-06T17:56:19.403Z,95917.11
2018-10-06T17:58:51.208Z,95917.27
2018-10-06T18:01:20.264Z,95912.02
2018-10-06T18:03:48.764Z,95920.06
2018-10-06T18:06:17.257Z,95919.41
2018-10-06T18:08:46.869Z,95918.06
2018-10-06T18:11:15.648Z,95921.30
2018-10-06T18:13:45.052Z,95925.45
2018-10-06T18:16:14.643Z,95924.88
2018-10-06T18:18:43.664Z,95925.08
2018-10-06T18:21:14.974Z,95926.41
2018-10-06T18:23:44.326Z,95927.11
2018-10-06T18:26:14.726Z,95932.15
2018-10-06T18:28:44.176Z,95928.27
2018-10-06T18:31:14.873Z,95934.20
2018-10-06T18:33:44.184Z,95938.00
2018-10-06T18:36:14.105Z,95934.19
2018-10-06T18:38:44.387Z,95935.77
2018-10-06T18:41:14.348Z,95931.48
2018-10-06T18:43:44.294Z,95937.56
2018-10-06T18:46:13.415Z,95937.86
2018-10-06T18:48:47.397Z,95939.32
2018-10-06T18:51:16.909Z,95936.02
2018-10-06T18:53:46.610Z,95931.94
2018-10-06T18:56:16.506Z,95932.17
2018-10-06T18:58:46.065Z,95935.02
2018-10-06T19:01:14.813Z,95936.20
2018-10-06T19:03:45.506Z,95932.81
2018-10-06T19:06:15.248Z,95939.08
2018-10-06T19:08:44.447Z,95937.75
2018-10-06T19:11:15.512Z,95941.53
2018-10-06T19:13:47.143Z,95946.72
2018-10-06T19:16:16.883Z,95954.25
2018-10-06T19:18:46.216Z,95951.45
2018-10-06T19:21:15.722Z,95952.68
2018-10-06T19:23:45.804Z,95951.75
2018-10-06T19:26:16.508Z,95953.87
2018-10-06T19:28:45.963Z,95957.95
2018-10-06T19:31:15.992Z,95948.62
2018-10-06T19:33:44.917Z,95950.44
2018-10-06T19:36:14.930Z,95954.05
2018-10-06T19:38:44.415Z,95957.48
2018-10-06T19:41:14.112Z,95952.67
2018-10-06T19:43:44.495Z,95957.67
2018-10-06T19:46:13.712Z,95952.63
2018-10-06T19:48:44.769Z,95955.18
2018-10-06T19:51:14.081Z,95955.59
2018-10-06T19:53:45.595Z,95961.61
2018-10-06T19:56:14.453Z,95958.34
2018-10-06T19:58:45.046Z,95957.41
2018-10-06T20:01:15.275Z,95959.70
2018-10-06T20:03:46.177Z,95964.36
2018-10-06T20:06:15.431Z,95964.05
2018-10-06T20:08:45.484Z,95963.85
2018-10-06T20:11:14.244Z,95959.22
2018-10-06T20:13:44.336Z,95970.48
2018-10-06T20:16:13.664Z,95969.92
2018-10-06T20:18:44.082Z,95971.11
2018-10-06T20:21:14.039Z,95971.16
2018-10-06T20:23:42.548Z,95972.45
2018-10-06T20:26:12.880Z,95975.13
2018-10-06T20:28:43.322Z,95973.79
2018-10-06T20:31:14.057Z,95977.05
2018-10-06T20:33:43.825Z,95977.97
2018-10-06T20:36:13.192Z,95976.71
2018-10-06T20:38:42.160Z,95978.56
2018-10-06T20:41:12.224Z,95985.78
2018-10-06T20:43:41.876Z,95983.72
2018-10-06T20:46:12.291Z,95982.75
2018-10-06T20:48:41.178Z,95983.41
2018-10-06T20:51:12.273Z,95972.53
2018-10-06T20:53:43.580Z,95975.80
2018-10-06T20:56:14.468Z,95979.75
2018-10-06T20:58:44.412Z,95977.72
2018-10-06T21:01:16.114Z,95978.07
2018-10-06T21:03:46.645Z,95974.38
2018-10-06T21:06:17.536Z,95977.31
2018-10-06T21:08:48.027Z,95976.27
2018-10-06T21:11:18.384Z,95971.14
2018-10-06T21:13:48.839Z,95977.66
2018-10-06T21:16:18.533Z,95987.67
2018-10-06T21:18:49.819Z,95972.19
2018-10-06T21:21:18.677Z,95980.84
2018-10-06T21:23:49.730Z,95975.42
2018-10-06T21:26:18.874Z,95972.55
2018-10-06T21:28:49.993Z,95977.37
2018-10-06T21:31:20.766Z,95978.03
2018-10-06T21:33:50.484Z,95972.89
2018-10-06T21:36:20.812Z,95971.34
2018-10-06T21:38:50.070Z,95967.33
2018-10-06T21:41:21.058Z,95969.59
2018-10-06T21:43:50.060Z,95977.00
2018-10-06T21:46:19.757Z,95971.41
2018-10-06T21:48:49.220Z,95969.33
2018-10-06T21:51:23.581Z,95966.91
2018-10-06T21:53:52.536Z,95969.83
2018-10-06T21:56:22.004Z,95965.17
2018-10-06T21:58:52.102Z,95969.86
2018-10-06T22:01:23.466Z,95965.48
2018-10-06T22:03:52.120Z,95966.30
2018-10-06T22:06:26.251Z,95961.45
2018-10-06T22:08:57.087Z,95961.05
2018-10-06T22:11:26.388Z,95959.94
2018-10-06T22:13:55.364Z,95959.66
2018-10-06T22:16:25.861Z,95959.62
2018-10-06T22:18:56.411Z,95951.77
2018-10-06T22:21:27.391Z,95951.45
2018-10-06T22:23:57.631Z,95947.28
2018-10-06T22:26:26.687Z,95949.75
2018-10-06T22:28:56.064Z,95951.97
2018-10-06T22:31:26.719Z,95950.21
2018-10-06T22:34:02.759Z,95941.44
2018-10-06T22:36:32.794Z,95944.66
2018-10-06T22:39:15.825Z,95939.77
2018-10-06T22:41:46.897Z,95942.72
2018-10-06T22:44:16.937Z,95937.41
2018-10-06T22:46:48.162Z,95940.50
2018-10-06T22:49:17.199Z,95943.67
2018-10-06T22:51:46.388Z,95940.47
2018-10-06T22:54:15.904Z,95942.12
2018-10-06T22:56:46.877Z,95941.74
2018-10-06T22:59:17.084Z,95943.15
2018-10-06T23:01:46.539Z,95940.64
2018-10-06T23:04:16.616Z,95944.36
2018-10-06T23:06:47.827Z,95418.72
2018-10-06T23:09:17.741Z,95940.44
2018-10-06T23:11:46.571Z,95946.34
2018-10-06T23:14:16.136Z,95939.55
2018-10-06T23:16:45.621Z,95946.41
2018-10-06T23:19:16.299Z,95944.43
2018-10-06T23:21:44.780Z,95940.34
2018-10-06T23:24:14.864Z,95945.45
2018-10-06T23:26:46.595Z,95943.66
2018-10-06T23:29:16.191Z,95946.59
2018-10-06T23:31:45.307Z,95939.36
2018-10-06T23:34:14.730Z,95945.18
2018-10-06T23:36:43.687Z,95943.80
2018-10-06T23:39:12.445Z,95940.62
2018-10-06T23:41:42.606Z,95943.59
2018-10-06T23:44:12.455Z,95939.86
2018-10-06T23:46:42.011Z,95944.22
2018-10-06T23:49:11.445Z,95942.34
2018-10-06T23:51:41.517Z,95943.65
2018-10-06T23:54:11.290Z,95939.52
2018-10-06T23:56:42.815Z,95943.27
2018-10-06T23:59:11.319Z,95942.89
